createdAt,value
2019-04-03T00:00:05.205Z,4.5
2019-04-03T00:02:06.654Z,5.1
2019-04-03T00:04:08.093Z,5.2
2019-04-03T00:06:09.532Z,5.2
2019-04-03T00:08:10.895Z,4.3
2019-04-03T00:10:12.336Z,4.9
2019-04-03T00:12:13.685Z,4.1
2019-04-03T00:14:14.955Z,5
2019-04-03T00:16:16.322Z,4.6
2019-04-03T00:18:17.670Z,4.1
2019-04-03T00:20:19.087Z,4.3
2019-04-03T00:22:22.281Z,4.3
2019-04-03T00:24:23.680Z,4.4
2019-04-03T00:26:25.159Z,3.9
2019-04-03T00:28:26.556Z,4.3
2019-04-03T00:30:28.029Z,4
2019-04-03T00:32:29.445Z,4
2019-04-03T00:34:30.859Z,3.8
2019-04-03T00:36:32.245Z,4.6
2019-04-03T00:38:33.589Z,4.4
2019-04-03T00:40:34.955Z,4.5
2019-04-03T00:42:36.382Z,4.4
2019-04-03T00:44:37.853Z,4.3
2019-04-03T00:46:39.270Z,4
2019-04-03T00:48:40.857Z,4.4
2019-04-03T00:50:42.294Z,4.5
2019-04-03T00:52:43.706Z,4.7
2019-04-03T00:54:45.142Z,4.5
2019-04-03T00:56:46.644Z,3.6
2019-04-03T00:58:47.984Z,3.9
2019-04-03T01:00:49.409Z,4.5
2019-04-03T01:02:50.808Z,4.8
2019-04-03T01:04:52.156Z,4.3
2019-04-03T01:06:53.608Z,4.9
2019-04-03T01:08:55.151Z,4.5
2019-04-03T01:10:56.456Z,4.3
2019-04-03T01:12:57.860Z,4.8
2019-04-03T01:15:02.165Z,5.1
2019-04-03T01:17:04.741Z,4.6
2019-04-03T01:19:06.420Z,4.3
2019-04-03T01:21:07.823Z,4.3
2019-04-03T01:23:09.274Z,4.2
2019-04-03T01:25:10.610Z,4.2
2019-04-03T01:27:12.277Z,4.3
2019-04-03T01:29:13.546Z,4.2
2019-04-03T01:31:15.226Z,4.5
2019-04-03T01:33:17.245Z,4.3
2019-04-03T01:35:18.675Z,4.3
2019-04-03T01:37:20.105Z,4.3
2019-04-03T01:39:21.558Z,4.9
2019-04-03T01:41:22.975Z,4.6
2019-04-03T01:43:24.321Z,4.4
2019-04-03T01:45:26.339Z,4.2
2019-04-03T01:47:28.222Z,4.2
2019-04-03T01:49:29.709Z,4.2
2019-04-03T01:51:31.142Z,4
2019-04-03T01:53:33.481Z,4
2019-04-03T01:55:35.236Z,4.3
2019-04-03T01:57:37.399Z,4.6
2019-04-03T01:59:38.854Z,4.3
2019-04-03T02:01:40.194Z,4
2019-04-03T02:03:42.277Z,4.1
2019-04-03T02:05:44.198Z,4
2019-04-03T02:07:45.622Z,4.4
2019-04-03T02:09:47.329Z,3.8
2019-04-03T02:11:49.865Z,4.4
2019-04-03T02:13:51.906Z,4.1
2019-04-03T02:15:53.339Z,4.1
2019-04-03T02:17:55.325Z,4
2019-04-03T02:19:57.039Z,4.2
2019-04-03T02:21:59.197Z,4.5
2019-04-03T02:24:01.799Z,4.2
2019-04-03T02:26:03.188Z,4.1
2019-04-03T02:28:04.683Z,4.1
2019-04-03T02:30:06.343Z,4.3
2019-04-03T02:32:07.744Z,3.7
2019-04-03T02:34:09.110Z,4.5
2019-04-03T02:36:13.160Z,4.5
2019-04-03T02:38:14.865Z,4.4
2019-04-03T02:40:16.684Z,4
2019-04-03T02:42:18.135Z,4.5
2019-04-03T02:44:20.153Z,4
2019-04-03T02:46:21.594Z,4.3
2019-04-03T02:48:23.048Z,4.3
2019-04-03T02:50:24.544Z,4.2
2019-04-03T02:52:26.081Z,4.5
2019-04-03T02:54:27.458Z,4.2
2019-04-03T02:56:28.911Z,4.2
2019-04-03T02:58:30.306Z,4.1
2019-04-03T03:00:33.847Z,3.8
2019-04-03T03:02:35.248Z,4.1
2019-04-03T03:04:36.681Z,4.3
2019-04-03T03:06:38.117Z,4.4
2019-04-03T03:08:42.608Z,4.3
2019-04-03T03:10:44.088Z,4.8
2019-04-03T03:12:45.458Z,4.4
2019-04-03T03:14:47.093Z,4.5
2019-04-03T03:16:50.876Z,4.6
2019-04-03T03:18:52.523Z,4.4
2019-04-03T03:20:54.315Z,4
2019-04-03T03:22:55.719Z,4.1
2019-04-03T03:25:01.267Z,4.2
2019-04-03T03:27:03.024Z,4.5
2019-04-03T03:29:19.156Z,4.7
2019-04-03T03:32:07.686Z,4.6
2019-04-03T03:34:10.440Z,4.3
2019-04-03T03:36:22.787Z,4.3
2019-04-03T03:38:28.694Z,4.2
2019-04-03T03:40:30.323Z,4.2
2019-04-03T03:42:32.672Z,4.5
2019-04-03T03:44:34.159Z,4.4
2019-04-03T03:46:35.467Z,4.8
2019-04-03T03:48:36.900Z,4.6
2019-04-03T03:50:38.330Z,4.4
2019-04-03T03:52:39.960Z,4.4
2019-04-03T03:54:41.568Z,4.6
2019-04-03T03:56:42.873Z,4.6
2019-04-03T03:58:46.446Z,4.5
2019-04-03T04:00:53.101Z,4.3
2019-04-03T04:02:54.567Z,4.9
2019-04-03T04:04:55.957Z,4.8
2019-04-03T04:06:57.736Z,4.9
2019-04-03T04:08:59.141Z,4.8
2019-04-03T04:11:00.540Z,4.7
2019-04-03T04:13:01.947Z,5.1
2019-04-03T04:15:03.391Z,5
2019-04-03T04:17:15.243Z,5.2
2019-04-03T04:19:17.481Z,5.9
2019-04-03T04:21:19.144Z,5.2
2019-04-03T04:23:24.776Z,5.2
2019-04-03T04:25:30.281Z,5.5
2019-04-03T04:27:37.526Z,6
2019-04-03T04:29:42.191Z,5.7
2019-04-03T04:31:44.527Z,6.3
2019-04-03T04:33:48.333Z,6.1
2019-04-03T04:35:53.028Z,6.4
2019-04-03T04:37:56.694Z,6.5
2019-04-03T04:40:00.248Z,6
2019-04-03T04:42:04.666Z,5.7
2019-04-03T04:44:06.177Z,6.1
2019-04-03T04:46:09.691Z,6.1
2019-04-03T04:48:11.367Z,6
2019-04-03T04:50:12.733Z,5.6
2019-04-03T04:52:14.074Z,5.6
2019-04-03T04:54:15.530Z,5.9
2019-04-03T04:56:16.930Z,6
2019-04-03T04:58:18.295Z,6.3
2019-04-03T05:00:19.840Z,5.7
2019-04-03T05:02:21.398Z,5.6
2019-04-03T05:04:25.255Z,5.6
2019-04-03T05:06:29.711Z,5.9
2019-04-03T05:08:33.549Z,5.8
2019-04-03T05:10:37.304Z,5.2
2019-04-03T05:12:44.254Z,6.6
2019-04-03T05:14:49.353Z,6.5
2019-04-03T05:16:50.844Z,5.9
2019-04-03T05:18:52.184Z,6.3
2019-04-03T05:20:53.636Z,5.9
2019-04-03T05:22:55.822Z,5.4
2019-04-03T05:24:59.870Z,5.2
2019-04-03T05:27:03.680Z,5.9
2019-04-03T05:29:05.116Z,5.2
2019-04-03T05:31:08.915Z,5.4
2019-04-03T05:33:11.843Z,5.1
2019-04-03T05:35:15.542Z,5.6
2019-04-03T05:37:20.517Z,5.3
2019-04-03T05:39:24.599Z,6.1
2019-04-03T05:41:28.711Z,5.9
2019-04-03T05:43:31.537Z,6.1
2019-04-03T05:45:35.669Z,6.2
2019-04-03T05:47:39.907Z,6.8
2019-04-03T05:49:41.302Z,7
2019-04-03T05:51:42.654Z,6.5
2019-04-03T05:53:44.083Z,5.9
2019-04-03T05:55:45.496Z,6.1
2019-04-03T05:57:46.818Z,7.5
2019-04-03T06:00:01.811Z,6.4
2019-04-03T06:02:16.902Z,6.7
2019-04-03T06:04:21.423Z,6
2019-04-03T06:06:22.784Z,7.1
2019-04-03T06:08:24.205Z,6.8
2019-04-03T06:10:28.579Z,6.3
2019-04-03T06:12:31.223Z,6.8
2019-04-03T06:14:32.569Z,7
2019-04-03T06:16:33.910Z,7.7
2019-04-03T06:18:35.530Z,6.5
2019-04-03T06:20:36.910Z,6.4
2019-04-03T06:22:38.293Z,6
2019-04-03T06:24:39.709Z,5.7
2019-04-03T06:26:44.919Z,5.7
2019-04-03T06:28:47.887Z,6.4
2019-04-03T06:30:49.486Z,6.5
2019-04-03T06:32:50.916Z,6
2019-04-03T06:34:52.258Z,5.7
2019-04-03T06:36:53.696Z,6.1
2019-04-03T06:38:57.117Z,6.1
2019-04-03T06:40:58.870Z,5.6
2019-04-03T06:43:00.221Z,5.6
2019-04-03T06:45:01.647Z,6.4
2019-04-03T06:47:03.086Z,6
2019-04-03T06:49:08.269Z,6.8
2019-04-03T06:51:09.806Z,6.9
2019-04-03T06:53:11.188Z,5.9
2019-04-03T06:55:12.795Z,6.1
2019-04-03T06:57:14.616Z,6
2019-04-03T06:59:17.382Z,5.8
2019-04-03T07:01:20.566Z,6.1
2019-04-03T07:03:23.214Z,5.9
2019-04-03T07:05:28.046Z,5.7
2019-04-03T07:07:35.489Z,5.9
2019-04-03T07:09:37.430Z,6.5
2019-04-03T07:11:38.788Z,5.8
2019-04-03T07:13:40.506Z,6.1
2019-04-03T07:15:41.776Z,5.9
2019-04-03T07:17:43.119Z,5.5
2019-04-03T07:19:44.556Z,5.6
2019-04-03T07:21:45.992Z,5.6
2019-04-03T07:23:47.431Z,5.8
2019-04-03T07:25:48.925Z,5.8
2019-04-03T07:27:50.321Z,5.7
2019-04-03T07:29:51.874Z,6.2
2019-04-03T07:31:55.631Z,6.3
2019-04-03T07:33:58.891Z,6.2
2019-04-03T07:36:02.762Z,6.1
2019-04-03T07:38:04.118Z,5.7
2019-04-03T07:40:05.537Z,6.7
2019-04-03T07:42:06.882Z,6.3
2019-04-03T07:44:08.277Z,6.4
2019-04-03T07:46:09.548Z,6.7
2019-04-03T07:48:10.985Z,7.1
2019-04-03T07:50:12.430Z,6.5
2019-04-03T07:52:17.620Z,6.5
2019-04-03T07:54:21.936Z,6.8
2019-04-03T07:56:26.637Z,7
2019-04-03T07:58:32.127Z,6.2
2019-04-03T08:00:33.969Z,6.4
2019-04-03T08:02:35.413Z,6.8
2019-04-03T08:04:36.814Z,6.3
2019-04-03T08:06:38.229Z,6.9
2019-04-03T08:08:39.667Z,6.3
2019-04-03T08:10:41.105Z,6.7
2019-04-03T08:12:42.447Z,5.8
2019-04-03T08:14:44.206Z,6.3
2019-04-03T08:16:48.669Z,6
2019-04-03T08:18:52.529Z,6
2019-04-03T08:20:57.282Z,6.8
2019-04-03T08:22:59.943Z,6
2019-04-03T08:25:01.361Z,5.9
2019-04-03T08:27:02.726Z,6.2
2019-04-03T08:29:04.146Z,6
2019-04-03T08:31:05.657Z,5.3
2019-04-03T08:33:18.453Z,5.5
2019-04-03T08:35:24.251Z,5.8
2019-04-03T08:37:32.164Z,6.1
2019-04-03T08:39:34.056Z,5.8
2019-04-03T08:41:37.931Z,5.9
2019-04-03T08:43:39.341Z,5.8
2019-04-03T08:45:40.777Z,6.1
2019-04-03T08:47:46.393Z,6.2
2019-04-03T08:49:47.957Z,5.5
2019-04-03T08:51:49.345Z,5.4
2019-04-03T08:53:54.791Z,6.5
2019-04-03T08:55:56.776Z,5.6
2019-04-03T08:57:58.150Z,5.5
2019-04-03T09:00:01.324Z,6.2
2019-04-03T09:02:03.199Z,5.3
2019-04-03T09:04:04.720Z,5.7
2019-04-03T09:06:06.115Z,5.1
2019-04-03T09:08:07.720Z,5.1
2019-04-03T09:10:09.107Z,6
2019-04-03T09:12:10.549Z,6.3
2019-04-03T09:14:11.894Z,5.6
2019-04-03T09:16:13.337Z,5.3
2019-04-03T09:18:14.773Z,4.8
2019-04-03T09:20:16.384Z,6.2
2019-04-03T09:22:22.184Z,5
2019-04-03T09:24:23.987Z,4.6
2019-04-03T09:26:25.500Z,5.9
2019-04-03T09:28:26.807Z,5.5
2019-04-03T09:30:28.154Z,5.3
2019-04-03T09:32:29.588Z,5.6
2019-04-03T09:34:34.439Z,4.7
2019-04-03T09:36:36.395Z,5.1
2019-04-03T09:38:41.776Z,5.1
2019-04-03T09:40:43.356Z,5.4
2019-04-03T09:42:44.696Z,5.7
2019-04-03T09:44:46.060Z,5.2
2019-04-03T09:46:47.446Z,4.8
2019-04-03T09:48:49.013Z,5.7
2019-04-03T09:50:50.375Z,5.8
2019-04-03T09:52:55.327Z,4.8
2019-04-03T09:55:00.581Z,4.9
2019-04-03T09:57:05.808Z,5.2
2019-04-03T09:59:08.238Z,5.4
2019-04-03T10:01:09.689Z,5.3
2019-04-03T10:03:11.020Z,5.6
2019-04-03T10:05:12.468Z,5.9
2019-04-03T10:07:14.160Z,6.8
2019-04-03T10:09:15.509Z,5.7
2019-04-03T10:11:20.828Z,5.4
2019-04-03T10:13:26.281Z,5.8
2019-04-03T10:15:31.537Z,6.7
2019-04-03T10:17:33.498Z,5.5
2019-04-03T10:19:34.893Z,5.6
2019-04-03T10:21:36.530Z,6.3
2019-04-03T10:23:37.829Z,5.1
2019-04-03T10:25:39.298Z,6
2019-04-03T10:27:43.695Z,6
2019-04-03T10:29:45.545Z,6.7
2019-04-03T10:31:46.844Z,6.3
2019-04-03T10:33:48.244Z,7.6
2019-04-03T10:35:49.553Z,6.7
2019-04-03T10:37:50.990Z,6.8
2019-04-03T10:39:53.649Z,7.3
2019-04-03T10:41:55.270Z,6.7
2019-04-03T10:43:57.034Z,8.6
2019-04-03T10:45:58.515Z,7.9
2019-04-03T10:48:00.105Z,7.2
2019-04-03T10:50:04.909Z,8.2
2019-04-03T10:52:06.723Z,8.2
2019-04-03T10:54:08.080Z,8
2019-04-03T10:56:09.510Z,7.6
2019-04-03T10:58:10.900Z,6.9
2019-04-03T11:00:12.350Z,7.5
2019-04-03T11:02:14.075Z,7.4
2019-04-03T11:04:15.426Z,7.1
2019-04-03T11:06:17.000Z,8.1
2019-04-03T11:08:18.415Z,7.6
2019-04-03T11:10:19.978Z,7.8
2019-04-03T11:12:21.382Z,7.8
2019-04-03T11:14:22.732Z,8
2019-04-03T11:16:24.208Z,8.3
2019-04-03T11:18:25.886Z,7
2019-04-03T11:20:27.363Z,7.9
2019-04-03T11:22:42.028Z,8.3
2019-04-03T11:24:44.178Z,8.1
2019-04-03T11:26:45.603Z,7.6
2019-04-03T11:28:47.076Z,7.1
2019-04-03T11:30:52.669Z,8.6
2019-04-03T11:32:54.304Z,6.9
2019-04-03T11:34:55.736Z,6.9
2019-04-03T11:37:01.474Z,8.3
2019-04-03T11:39:15.558Z,9.2
2019-04-03T11:41:20.211Z,7.9
2019-04-03T11:43:23.108Z,7.7
2019-04-03T11:45:24.482Z,7.6
2019-04-03T11:47:25.888Z,6.8
2019-04-03T11:49:27.240Z,6.8
2019-04-03T11:51:30.233Z,6.4
2019-04-03T11:53:35.490Z,6.5
2019-04-03T11:55:37.273Z,6.5
2019-04-03T11:57:38.656Z,6.2
2019-04-03T11:59:40.306Z,6.1
2019-04-03T12:01:41.633Z,5.6
2019-04-03T12:03:43.012Z,6.2
2019-04-03T12:05:47.833Z,6.2
2019-04-03T12:07:49.580Z,6
2019-04-03T12:09:50.939Z,5.9
2019-04-03T12:11:55.496Z,5.5
2019-04-03T12:13:57.321Z,5.5
2019-04-03T12:15:58.937Z,5.3
2019-04-03T12:18:02.329Z,6.1
2019-04-03T12:20:04.301Z,6.6
2019-04-03T12:22:05.697Z,6.5
2019-04-03T12:24:07.234Z,6.6
2019-04-03T12:26:11.785Z,6.2
2019-04-03T12:28:14.238Z,6.5
2019-04-03T12:30:15.668Z,6.3
2019-04-03T12:32:17.268Z,6.3
2019-04-03T12:34:18.648Z,6.8
2019-04-03T12:36:20.319Z,6.5
2019-04-03T12:38:23.285Z,5.6
2019-04-03T12:40:24.862Z,3.5
2019-04-03T12:42:26.606Z,3.5
2019-04-03T12:44:28.099Z,3.1
2019-04-03T12:46:33.691Z,3.1
2019-04-03T12:48:35.496Z,2.6
2019-04-03T12:50:36.988Z,2.3
2019-04-03T12:52:38.671Z,2.1
2019-04-03T12:54:40.209Z,2.4
2019-04-03T12:56:41.599Z,2.4
2019-04-03T12:58:43.228Z,2.2
2019-04-03T13:00:46.735Z,2.3
2019-04-03T13:02:52.462Z,2.5
2019-04-03T13:04:54.233Z,2.5
2019-04-03T13:06:55.687Z,2.6
2019-04-03T13:08:57.155Z,3.7
2019-04-03T13:10:58.581Z,3.9
2019-04-03T13:12:59.934Z,4.7
2019-04-03T13:15:05.586Z,4.2
2019-04-03T13:17:07.104Z,3.3
2019-04-03T13:19:08.463Z,3.6
2019-04-03T13:21:10.007Z,10.4
2019-04-03T13:23:14.468Z,4
2019-04-03T13:25:21.485Z,6.9
2019-04-03T13:27:23.021Z,4
2019-04-03T13:29:24.558Z,3.7
2019-04-03T13:31:26.324Z,4
2019-04-03T13:33:27.812Z,4
2019-04-03T13:35:29.185Z,5.4
2019-04-03T13:37:30.809Z,8.5
2019-04-03T13:39:34.219Z,10.6
2019-04-03T13:41:36.105Z,5.8
2019-04-03T13:43:37.829Z,4.6
2019-04-03T13:45:39.288Z,4.4
2019-04-03T13:47:44.658Z,4.6
2019-04-03T13:49:50.706Z,7.5
2019-04-03T13:51:52.825Z,9.4
2019-04-03T13:53:54.587Z,18.4
2019-04-03T13:55:55.991Z,10
2019-04-03T13:57:57.399Z,8.9
2019-04-03T14:00:11.370Z,6.5
2019-04-03T14:02:17.672Z,4.8
2019-04-03T14:04:22.757Z,13.8
2019-04-03T14:06:25.072Z,10.6
2019-04-03T14:08:26.741Z,8.1
2019-04-03T14:10:28.615Z,6.4
2019-04-03T14:12:30.027Z,6.4
2019-04-03T14:14:31.732Z,5.2
2019-04-03T14:16:35.560Z,5.6
2019-04-03T14:18:40.886Z,5.5
2019-04-03T14:20:42.826Z,4.7
2019-04-03T14:22:44.255Z,5.5
2019-04-03T14:24:52.509Z,5.3
2019-04-03T14:26:54.377Z,5.1
2019-04-03T14:28:55.871Z,4.4
2019-04-03T14:30:57.198Z,4.7
2019-04-03T14:32:58.705Z,5.5
2019-04-03T14:35:32.434Z,4.7
2019-04-03T14:37:42.398Z,4.7
2019-04-03T14:39:44.136Z,4.8
2019-04-03T14:41:45.530Z,5.2
2019-04-03T14:43:47.276Z,4.7
2019-04-03T14:45:48.707Z,5.1
2019-04-03T14:47:50.118Z,4.3
2019-04-03T14:49:51.713Z,5.5
2019-04-03T14:51:53.106Z,5.6
2019-04-03T14:53:54.657Z,7.5
2019-04-03T14:55:58.092Z,6.4
2019-04-03T14:58:01.294Z,6.4
2019-04-03T15:00:25.568Z,7
2019-04-03T15:02:28.258Z,6.1
2019-04-03T15:04:36.241Z,6.6
2019-04-03T15:06:37.988Z,7.1
2019-04-03T15:08:39.339Z,8.4
2019-04-03T15:10:40.775Z,7.3
2019-04-03T15:12:42.403Z,7
2019-04-03T15:14:43.862Z,5.9
2019-04-03T15:16:45.548Z,5.1
2019-04-03T15:18:46.853Z,5.4
2019-04-03T15:20:50.605Z,5.7
2019-04-03T15:22:52.883Z,5
2019-04-03T15:24:54.273Z,7.4
2019-04-03T15:26:55.714Z,7
2019-04-03T15:28:57.144Z,7
2019-04-03T15:30:58.456Z,6.9
2019-04-03T15:33:00.293Z,5.9
2019-04-03T15:35:01.976Z,6.7
2019-04-03T15:37:03.404Z,7.3
2019-04-03T15:39:04.832Z,7.3
2019-04-03T15:41:06.216Z,7.8
2019-04-03T15:43:22.640Z,7.4
2019-04-03T15:45:26.071Z,7.3
2019-04-03T15:47:39.034Z,7.1
2019-04-03T15:49:43.243Z,6.8
2019-04-03T15:51:44.608Z,7.1
2019-04-03T15:53:46.123Z,7.2
2019-04-03T15:55:48.071Z,6.6
2019-04-03T15:57:53.237Z,6.5
2019-04-03T15:59:55.123Z,7.8
2019-04-03T16:01:56.911Z,7.6
2019-04-03T16:04:00.029Z,7.5
2019-04-03T16:06:05.057Z,6.8
2019-04-03T16:08:06.570Z,7.5
2019-04-03T16:10:08.451Z,8.3
2019-04-03T16:12:09.772Z,7.6
2019-04-03T16:14:11.553Z,7.5
2019-04-03T16:16:12.928Z,7.1
2019-04-03T16:18:14.790Z,7.4
2019-04-03T16:20:17.846Z,8.3
2019-04-03T16:22:19.598Z,6.5
2019-04-03T16:24:21.585Z,6.3
2019-04-03T16:26:24.993Z,7.8
2019-04-03T16:28:26.941Z,8.4
2019-04-03T16:30:28.620Z,7.1
2019-04-03T16:32:29.969Z,8.1
2019-04-03T16:34:31.279Z,7.6
2019-04-03T16:36:32.684Z,6.9
2019-04-03T16:38:36.463Z,7.1
2019-04-03T16:40:39.465Z,7.7
2019-04-03T16:42:40.950Z,8.6
2019-04-03T16:44:42.289Z,8.4
2019-04-03T16:46:43.738Z,7.8
2019-04-03T16:48:45.503Z,7.6
2019-04-03T16:50:47.320Z,8.2
2019-04-03T16:52:48.759Z,7.8
2019-04-03T16:54:50.183Z,8
2019-04-03T16:56:51.915Z,7
2019-04-03T16:58:53.511Z,8.1
2019-04-03T17:00:55.143Z,8.2
2019-04-03T17:02:57.141Z,8.5
2019-04-03T17:04:58.543Z,8.4
2019-04-03T17:06:59.947Z,8.4
2019-04-03T17:09:15.933Z,8
2019-04-03T17:11:17.297Z,8.6
2019-04-03T17:13:21.464Z,7.6
2019-04-03T17:15:22.867Z,7.8
2019-04-03T17:17:24.152Z,7.2
2019-04-03T17:19:25.593Z,6.7
2019-04-03T17:21:35.713Z,6.9
2019-04-03T17:23:37.814Z,6.2
2019-04-03T17:25:50.853Z,5.9
2019-04-03T17:27:58.687Z,5.8
2019-04-03T17:30:01.277Z,5.9
2019-04-03T17:32:02.647Z,5.3
2019-04-03T17:34:07.698Z,5.5
2019-04-03T17:36:09.614Z,5.5
2019-04-03T17:38:11.045Z,5.4
2019-04-03T17:40:12.506Z,5
2019-04-03T17:42:13.884Z,4.9
2019-04-03T17:44:15.217Z,4.6
2019-04-03T17:46:18.235Z,4
2019-04-03T17:48:19.653Z,4
2019-04-03T17:50:20.913Z,4.3
2019-04-03T17:52:22.289Z,4.4
2019-04-03T17:54:23.674Z,3.9
2019-04-03T17:56:25.044Z,3.8
2019-04-03T17:58:26.480Z,3.4
2019-04-03T18:00:27.913Z,3.3
2019-04-03T18:02:29.808Z,3.2
2019-04-03T18:04:31.198Z,3.5
2019-04-03T18:06:47.283Z,3.7
2019-04-03T18:08:48.889Z,4.4
2019-04-03T18:10:50.383Z,4.1
2019-04-03T18:12:52.916Z,4.1
2019-04-03T18:14:57.549Z,3.5
2019-04-03T18:17:01.920Z,3.8
2019-04-03T18:19:05.476Z,4
2019-04-03T18:21:06.947Z,3.7
2019-04-03T18:23:10.825Z,4
2019-04-03T18:25:12.282Z,3.7
2019-04-03T18:27:13.806Z,4.3
2019-04-03T18:29:15.197Z,2.9
2019-04-03T18:31:16.521Z,3
2019-04-03T18:33:17.998Z,2.3
2019-04-03T18:35:19.354Z,1.9
2019-04-03T18:37:20.723Z,2.1
2019-04-03T18:39:22.055Z,1.7
2019-04-03T18:41:23.493Z,1.8
2019-04-03T18:43:24.876Z,1.6
2019-04-03T18:45:26.417Z,1.4
2019-04-03T18:47:41.739Z,1.4
2019-04-03T18:49:43.366Z,1.5
2019-04-03T18:51:44.791Z,1.7
2019-04-03T18:53:46.150Z,1.2
2019-04-03T18:55:47.519Z,1.2
2019-04-03T18:57:50.467Z,0.9
2019-04-03T18:59:51.934Z,0.8
2019-04-03T19:01:53.394Z,0.8
2019-04-03T19:03:54.796Z,0.7
2019-04-03T19:05:56.238Z,0.8
2019-04-03T19:07:57.671Z,0.7
2019-04-03T19:10:07.763Z,0.7
2019-04-03T19:12:13.389Z,0.7
2019-04-03T19:14:31.292Z,0.6
2019-04-03T19:16:47.764Z,0.7
2019-04-03T19:18:52.708Z,0.7
2019-04-03T19:20:54.105Z,0.6
2019-04-03T19:23:03.931Z,0.6
2019-04-03T19:25:06.365Z,0.5
2019-04-03T19:27:07.838Z,0.8
2019-04-03T19:29:09.243Z,0.6
2019-04-03T19:31:10.789Z,0.7
2019-04-03T19:33:14.606Z,0.7
2019-04-03T19:35:16.264Z,0.7
2019-04-03T19:37:17.591Z,0.5
2019-04-03T19:39:18.991Z,0.5
2019-04-03T19:41:20.309Z,0.6
2019-04-03T19:43:22.026Z,0.5
2019-04-03T19:45:23.479Z,0.5
2019-04-03T19:47:25.243Z,0.7
2019-04-03T19:49:28.253Z,0.6
2019-04-03T19:51:29.656Z,1.2
2019-04-03T19:53:31.077Z,0.8
2019-04-03T19:55:32.505Z,1
2019-04-03T19:57:33.948Z,1.2
2019-04-03T19:59:35.368Z,1.7
2019-04-03T20:01:39.518Z,1.1
2019-04-03T20:03:40.932Z,1.4
2019-04-03T20:05:44.231Z,1.6
2019-04-03T20:07:45.634Z,1.5
2019-04-03T20:09:46.912Z,1.2
2019-04-03T20:11:48.169Z,1.1
2019-04-03T20:13:49.574Z,1
2019-04-03T20:15:54.582Z,1
2019-04-03T20:17:56.043Z,0.9
2019-04-03T20:19:58.423Z,1
2019-04-03T20:21:59.836Z,1.1
2019-04-03T20:24:01.398Z,1.1
2019-04-03T20:26:04.839Z,1.1
2019-04-03T20:28:06.692Z,1.1
2019-04-03T20:30:08.158Z,1
2019-04-03T20:32:09.504Z,1.1
2019-04-03T20:34:13.404Z,1.1
2019-04-03T20:36:18.422Z,1.2
2019-04-03T20:38:21.535Z,1
2019-04-03T20:40:22.877Z,1.2
2019-04-03T20:42:24.212Z,1.3
2019-04-03T20:50:07.680Z,1.2
2019-04-03T20:52:11.648Z,1.1
2019-04-03T20:54:13.057Z,1.4
2019-04-03T20:56:14.487Z,1.3
2019-04-03T20:58:15.936Z,1.4
2019-04-03T21:00:20.042Z,1.4
2019-04-03T21:02:21.711Z,1.9
2019-04-03T21:04:23.220Z,1.9
2019-04-03T21:06:25.683Z,1.8
2019-04-03T21:08:31.829Z,1.4
2019-04-03T21:10:33.246Z,1.4
2019-04-03T21:12:36.375Z,1.5
2019-04-03T21:14:41.979Z,1.4
2019-04-03T21:16:43.479Z,1.3
2019-04-03T21:18:45.336Z,1.3
2019-04-03T21:20:54.699Z,1.5
2019-04-03T21:22:57.071Z,1.4
2019-04-03T21:24:58.480Z,1.4
2019-04-03T21:27:06.824Z,1.5
2019-04-03T21:29:09.992Z,1.3
2019-04-03T21:31:11.437Z,1.5
2019-04-03T21:33:13.569Z,1.6
2019-04-03T21:35:15.478Z,1.6
2019-04-03T21:37:16.875Z,2.1
2019-04-03T21:39:18.302Z,2.2
2019-04-03T21:41:21.346Z,2.1
2019-04-03T21:43:22.745Z,2.1
2019-04-03T21:45:24.120Z,2.2
2019-04-03T21:47:25.543Z,2.2
2019-04-03T21:49:26.983Z,2.3
2019-04-03T21:51:28.436Z,2.4
2019-04-03T21:53:29.829Z,2.6
2019-04-03T21:55:34.475Z,3.1
2019-04-03T21:57:38.698Z,2.9
2019-04-03T21:59:42.251Z,2.8
2019-04-03T22:01:45.990Z,2.8
2019-04-03T22:03:51.513Z,2.8
2019-04-03T22:05:56.482Z,3.2
2019-04-03T22:07:58.918Z,3.4
2019-04-03T22:10:02.712Z,3.3
2019-04-03T22:12:06.572Z,3.1
2019-04-03T22:14:11.630Z,3.2
2019-04-03T22:16:13.402Z,3.3
2019-04-03T22:18:14.764Z,3.5
2019-04-03T22:20:16.065Z,3.6
2019-04-03T22:22:17.426Z,3.2
2019-04-03T22:24:18.801Z,3.6
2019-04-03T22:26:20.211Z,3
2019-04-03T22:28:21.566Z,3.6
2019-04-03T22:30:22.856Z,3.6
2019-04-03T22:32:25.379Z,3.7
2019-04-03T22:34:30.394Z,3.2
2019-04-03T22:36:34.091Z,3.8
2019-04-03T22:38:37.653Z,3.8
2019-04-03T22:40:41.412Z,4
2019-04-03T22:42:46.049Z,4.2
2019-04-03T22:44:48.488Z,4.2
2019-04-03T22:46:49.935Z,4.1
2019-04-03T22:48:51.279Z,4.2
2019-04-03T22:50:52.622Z,4.3
2019-04-03T22:52:54.127Z,3.5
2019-04-03T22:54:55.486Z,4.4
2019-04-03T22:56:56.911Z,4.5
2019-04-03T22:58:58.245Z,4.4
2019-04-03T23:00:59.841Z,4.4
2019-04-03T23:03:03.456Z,4.2
2019-04-03T23:05:04.893Z,4.3
2019-04-03T23:07:06.348Z,4.6
2019-04-03T23:09:07.751Z,4.5
2019-04-03T23:11:09.121Z,3.4
2019-04-03T23:13:10.550Z,3.9
2019-04-03T23:15:11.884Z,4
2019-04-03T23:17:14.564Z,3.7
2019-04-03T23:19:18.635Z,4.1
2019-04-03T23:21:20.082Z,4.1
2019-04-03T23:23:21.408Z,4
2019-04-03T23:25:22.787Z,4.7
2019-04-03T23:27:24.119Z,8.5
2019-04-03T23:29:25.468Z,7.7
2019-04-03T23:31:26.891Z,10.9
2019-04-03T23:33:28.236Z,4.9
2019-04-03T23:35:29.665Z,4.1
2019-04-03T23:37:31.073Z,4.3
2019-04-03T23:39:32.362Z,4.6
2019-04-03T23:41:36.994Z,5.2
2019-04-03T23:43:40.090Z,4.9
2019-04-03T23:45:44.213Z,4.5
2019-04-03T23:47:47.559Z,4.6
2019-04-03T23:49:51.654Z,4.6
2019-04-03T23:51:53.096Z,4.6
2019-04-03T23:53:54.502Z,4.5
2019-04-03T23:57:57.221Z,4.6
2019-04-03T23:59:58.524Z,4.9
